createdAt,value
2018-11-11T00:00:12.226Z,34.83
2018-11-11T00:02:40.754Z,32.23
2018-11-11T00:05:10.355Z,33.07
2018-11-11T00:07:38.861Z,34.67
2018-11-11T00:10:07.526Z,31.63
2018-11-11T00:12:36.201Z,34.40
2018-11-11T00:15:05.346Z,31.67
2018-11-11T00:17:33.876Z,29.93
2018-11-11T00:20:02.861Z,29.70
2018-11-11T00:22:31.519Z,30.90
2018-11-11T00:24:59.973Z,27.83
2018-11-11T00:27:28.897Z,29.27
2018-11-11T00:29:57.372Z,30.80
2018-11-11T00:32:25.850Z,31.33
2018-11-11T00:34:54.513Z,29.17
2018-11-11T00:37:23.022Z,25.57
2018-11-11T00:39:51.817Z,29.70
2018-11-11T00:42:20.954Z,28.07
2018-11-11T00:44:49.421Z,30.53
2018-11-11T00:47:17.986Z,29.70
2018-11-11T00:49:47.001Z,30.13
2018-11-11T00:52:15.477Z,27.23
2018-11-11T00:54:43.957Z,28.77
2018-11-11T00:57:12.813Z,29.20
2018-11-11T00:59:41.250Z,32.70
2018-11-11T01:02:09.725Z,29.57
2018-11-11T01:04:38.543Z,28.00
2018-11-11T01:07:07.029Z,27.67
2018-11-11T01:09:35.518Z,27.27
2018-11-11T01:12:04.894Z,28.30
2018-11-11T01:14:33.346Z,27.47
2018-11-11T01:17:01.809Z,27.17
2018-11-11T01:19:30.963Z,28.43
2018-11-11T01:21:59.404Z,27.17
2018-11-11T01:24:28.105Z,26.83
2018-11-11T01:26:57.035Z,27.07
2018-11-11T01:29:25.496Z,27.23
2018-11-11T01:31:53.973Z,27.07
2018-11-11T01:34:23.218Z,25.63
2018-11-11T01:36:51.697Z,24.70
2018-11-11T01:39:20.199Z,24.10
2018-11-11T01:41:49.150Z,23.30
2018-11-11T01:44:18.591Z,27.10
2018-11-11T01:46:47.038Z,27.20
2018-11-11T01:49:15.745Z,25.40
2018-11-11T01:51:44.214Z,26.90
2018-11-11T01:54:12.678Z,26.43
2018-11-11T01:56:41.772Z,24.40
2018-11-11T01:59:10.247Z,24.70
2018-11-11T02:01:38.760Z,26.23
2018-11-11T02:04:07.592Z,26.77
2018-11-11T02:06:36.090Z,24.03
2018-11-11T02:09:07.353Z,27.53
2018-11-11T02:11:36.382Z,25.27
2018-11-11T02:14:04.919Z,23.90
2018-11-11T02:16:33.702Z,30.37
2018-11-11T02:19:02.298Z,28.73
2018-11-11T02:21:30.975Z,22.13
2018-11-11T02:23:59.501Z,23.97
2018-11-11T02:26:28.637Z,25.13
2018-11-11T02:28:57.066Z,23.83
2018-11-11T02:31:25.548Z,23.30
2018-11-11T02:33:54.574Z,27.00
2018-11-11T02:36:23.197Z,25.43
2018-11-11T02:38:51.821Z,26.60
2018-11-11T02:41:21.221Z,26.13
2018-11-11T02:43:49.670Z,23.43
2018-11-11T02:46:18.175Z,25.60
2018-11-11T02:48:47.581Z,27.87
2018-11-11T02:51:16.052Z,27.73
2018-11-11T02:53:44.749Z,28.27
2018-11-11T02:56:13.637Z,27.90
2018-11-11T02:58:42.096Z,33.53
2018-11-11T03:01:10.572Z,30.30
2018-11-11T03:03:39.813Z,33.20
2018-11-11T03:06:08.273Z,29.53
2018-11-11T03:08:37.057Z,31.23
2018-11-11T03:11:05.858Z,30.13
2018-11-11T03:13:34.305Z,29.67
2018-11-11T03:16:02.786Z,31.70
2018-11-11T03:18:31.807Z,30.43
2018-11-11T03:21:00.269Z,26.57
2018-11-11T03:23:28.762Z,31.30
2018-11-11T03:25:57.462Z,33.47
2018-11-11T03:28:26.149Z,30.80
2018-11-11T03:30:54.647Z,31.90
2018-11-11T03:33:23.372Z,29.23
2018-11-11T03:35:51.856Z,31.47
2018-11-11T03:38:20.333Z,29.27
2018-11-11T03:40:49.288Z,34.33
2018-11-11T03:43:17.733Z,31.60
2018-11-11T03:45:46.222Z,30.07
2018-11-11T03:48:15.261Z,29.00
2018-11-11T03:50:43.759Z,34.47
2018-11-11T03:53:12.258Z,32.87
2018-11-11T03:55:41.015Z,31.80
2018-11-11T03:58:09.579Z,33.37
2018-11-11T04:00:38.059Z,34.00
2018-11-11T04:03:06.926Z,30.97
2018-11-11T04:05:35.378Z,33.87
2018-11-11T04:08:03.891Z,29.80
2018-11-11T04:10:33.185Z,34.60
2018-11-11T04:13:01.507Z,34.27
2018-11-11T04:15:29.973Z,34.53
2018-11-11T04:17:59.093Z,36.07
2018-11-11T04:20:27.559Z,32.80
2018-11-11T04:22:56.073Z,37.97
2018-11-11T04:25:24.671Z,39.43
2018-11-11T04:27:53.117Z,40.50
2018-11-11T04:30:22.173Z,37.70
2018-11-11T04:32:50.821Z,38.70
2018-11-11T04:35:19.272Z,37.77
2018-11-11T04:37:47.745Z,38.67
2018-11-11T04:40:16.384Z,41.57
2018-11-11T04:42:44.848Z,44.73
2018-11-11T04:45:14.769Z,43.33
2018-11-11T04:47:45.031Z,41.87
2018-11-11T04:50:15.625Z,43.13
2018-11-11T04:52:44.928Z,45.43
2018-11-11T04:55:13.678Z,41.13
2018-11-11T04:57:42.725Z,45.27
2018-11-11T05:00:12.453Z,46.37
2018-11-11T05:02:41.821Z,42.97
2018-11-11T05:05:11.535Z,43.47
2018-11-11T05:07:40.489Z,41.23
2018-11-11T05:10:09.786Z,44.03
2018-11-11T05:12:38.287Z,44.87
2018-11-11T05:15:07.916Z,41.27
2018-11-11T05:17:36.703Z,42.93
2018-11-11T05:20:05.950Z,41.67
2018-11-11T05:22:34.878Z,40.43
2018-11-11T05:25:03.571Z,47.37
2018-11-11T05:27:32.018Z,41.23
2018-11-11T05:30:00.816Z,45.43
2018-11-11T05:32:29.522Z,44.07
2018-11-11T05:34:57.976Z,47.23
2018-11-11T05:37:26.961Z,50.00
2018-11-11T05:39:55.795Z,45.47
2018-11-11T05:42:24.281Z,49.40
2018-11-11T05:44:53.245Z,45.63
2018-11-11T05:47:21.770Z,51.73
2018-11-11T05:49:50.254Z,49.47
2018-11-11T05:52:18.817Z,48.23
2018-11-11T05:54:47.401Z,51.33
2018-11-11T05:57:15.849Z,51.63
2018-11-11T05:59:44.809Z,53.20
2018-11-11T06:02:13.365Z,61.23
2018-11-11T06:04:41.814Z,61.47
2018-11-11T06:07:10.478Z,65.43
2018-11-11T06:09:39.029Z,80.20
2018-11-11T06:12:07.497Z,86.20
2018-11-11T06:14:36.067Z,92.67
2018-11-11T06:17:04.846Z,90.57
2018-11-11T06:19:33.318Z,97.80
2018-11-11T06:22:02.217Z,100.83
2018-11-11T06:24:30.754Z,99.57
2018-11-11T06:26:59.253Z,92.83
2018-11-11T06:29:28.113Z,93.10
2018-11-11T06:31:56.660Z,99.77
2018-11-11T06:34:25.780Z,99.37
2018-11-11T06:36:54.717Z,106.53
2018-11-11T06:39:23.351Z,104.37
2018-11-11T06:41:51.877Z,109.47
2018-11-11T06:44:20.785Z,106.70
2018-11-11T06:46:49.677Z,112.47
2018-11-11T06:49:18.127Z,107.57
2018-11-11T06:51:46.878Z,117.20
2018-11-11T06:54:16.045Z,104.50
2018-11-11T06:56:44.501Z,100.93
2018-11-11T06:59:13.382Z,110.43
2018-11-11T07:01:42.114Z,106.10
2018-11-11T07:04:10.570Z,107.07
2018-11-11T07:06:39.570Z,94.87
2018-11-11T07:09:08.146Z,87.73
2018-11-11T07:11:36.601Z,87.53
2018-11-11T07:14:05.646Z,79.17
2018-11-11T07:16:34.245Z,88.20
2018-11-11T07:19:02.682Z,78.47
2018-11-11T07:21:31.668Z,81.13
2018-11-11T07:24:00.691Z,74.13
2018-11-11T07:26:29.101Z,66.43
2018-11-11T07:28:57.689Z,63.23
2018-11-11T07:31:26.375Z,65.20
2018-11-11T07:33:54.935Z,63.07
2018-11-11T07:36:23.674Z,55.80
2018-11-11T07:38:52.218Z,58.60
2018-11-11T07:41:20.707Z,54.37
2018-11-11T07:43:49.553Z,52.77
2018-11-11T07:46:18.498Z,52.17
2018-11-11T07:48:46.945Z,45.60
2018-11-11T07:51:16.003Z,46.07
2018-11-11T07:53:44.868Z,49.40
2018-11-11T07:56:13.342Z,41.63
2018-11-11T07:58:41.950Z,46.47
2018-11-11T08:01:10.862Z,37.97
2018-11-11T08:03:39.320Z,39.23
2018-11-11T08:06:08.114Z,36.20
2018-11-11T08:08:36.628Z,37.03
2018-11-11T08:11:16.497Z,29.17
2018-11-11T08:13:45.103Z,29.37
2018-11-11T08:16:13.556Z,26.47
2018-11-11T08:18:42.219Z,27.47
2018-11-11T08:21:11.097Z,23.27
2018-11-11T08:23:39.549Z,21.93
2018-11-11T08:26:08.130Z,25.60
2018-11-11T08:28:36.667Z,25.67
2018-11-11T08:31:05.281Z,24.10
2018-11-11T08:33:33.895Z,23.27
2018-11-11T08:36:02.602Z,29.50
2018-11-11T08:38:31.173Z,26.70
2018-11-11T08:41:00.227Z,27.30
2018-11-11T08:43:28.993Z,27.07
2018-11-11T08:45:57.441Z,31.87
2018-11-11T08:48:26.218Z,30.50
2018-11-11T08:50:55.099Z,32.40
2018-11-11T08:53:23.537Z,34.63
2018-11-11T08:55:52.158Z,37.63
2018-11-11T08:58:21.173Z,36.97
2018-11-11T09:00:49.725Z,42.67
2018-11-11T09:03:18.599Z,41.40
2018-11-11T09:05:47.185Z,46.87
2018-11-11T09:08:15.626Z,44.70
2018-11-11T09:10:44.588Z,48.93
2018-11-11T09:13:13.245Z,55.03
2018-11-11T09:15:41.881Z,54.97
2018-11-11T09:18:10.654Z,53.47
2018-11-11T09:20:39.544Z,52.37
2018-11-11T09:23:08.005Z,60.13
2018-11-11T09:25:36.757Z,53.23
2018-11-11T09:28:06.041Z,54.50
2018-11-11T09:30:34.567Z,57.73
2018-11-11T09:33:03.390Z,65.90
2018-11-11T09:35:32.282Z,62.93
2018-11-11T09:38:00.729Z,60.60
2018-11-11T09:40:29.742Z,66.83
2018-11-11T09:42:58.639Z,61.47
2018-11-11T09:45:27.097Z,63.00
2018-11-11T09:47:55.695Z,70.37
2018-11-11T09:50:24.378Z,68.33
2018-11-11T09:52:52.856Z,59.80
2018-11-11T09:55:21.458Z,68.73
2018-11-11T09:57:50.037Z,61.50
2018-11-11T10:00:19.966Z,65.33
2018-11-11T10:03:03.998Z,70.23
2018-11-11T10:07:39.233Z,68.83
2018-11-11T10:10:12.087Z,68.27
2018-11-11T10:12:44.939Z,71.47
2018-11-11T10:15:32.130Z,65.80
2018-11-11T10:18:05.757Z,70.77
2018-11-11T10:20:41.552Z,72.57
2018-11-11T10:23:44.045Z,78.50
2018-11-11T10:26:26.598Z,78.53
2018-11-11T10:29:05.704Z,86.83
2018-11-11T10:31:41.961Z,85.70
2018-11-11T10:34:46.142Z,92.97
2018-11-11T10:37:17.446Z,81.30
2018-11-11T10:39:54.823Z,85.10
2018-11-11T10:42:48.168Z,79.23
2018-11-11T10:45:21.793Z,90.17
2018-11-11T10:47:59.820Z,94.17
2018-11-11T10:50:45.505Z,88.03
2018-11-11T10:53:14.666Z,85.03
2018-11-11T10:55:43.106Z,78.27
2018-11-11T10:58:11.560Z,76.50
2018-11-11T11:00:45.405Z,84.00
2018-11-11T11:03:19.258Z,74.23
2018-11-11T11:05:47.949Z,74.03
2018-11-11T11:08:16.368Z,78.37
2018-11-11T11:10:44.851Z,74.80
2018-11-11T11:13:14.327Z,74.53
2018-11-11T11:15:42.779Z,65.40
2018-11-11T11:18:11.260Z,65.80
2018-11-11T11:20:39.957Z,63.50
2018-11-11T11:23:08.532Z,62.47
2018-11-11T11:25:37.027Z,64.40
2018-11-11T11:28:06.093Z,59.93
2018-11-11T11:30:34.552Z,64.27
2018-11-11T11:33:03.021Z,68.07
2018-11-11T11:35:32.464Z,58.50
2018-11-11T11:38:01.000Z,65.87
2018-11-11T11:40:29.668Z,70.80
2018-11-11T11:42:58.822Z,65.43
2018-11-11T11:45:27.326Z,71.97
2018-11-11T11:47:55.777Z,92.23
2018-11-11T11:50:24.932Z,71.70
2018-11-11T11:52:53.662Z,66.70
2018-11-11T11:55:22.177Z,72.33
2018-11-11T11:58:02.200Z,65.57
2018-11-11T12:00:30.653Z,72.73
2018-11-11T12:02:59.199Z,65.80
2018-11-11T12:05:27.968Z,72.93
2018-11-11T12:07:56.638Z,72.03
2018-11-11T12:10:25.196Z,73.03
2018-11-11T12:12:54.795Z,71.23
2018-11-11T12:15:23.259Z,74.03
2018-11-11T12:17:51.715Z,73.03
2018-11-11T12:20:20.616Z,76.97
2018-11-11T12:22:49.068Z,65.83
2018-11-11T12:25:17.533Z,77.90
2018-11-11T12:27:46.528Z,75.57
2018-11-11T12:30:15.029Z,83.60
2018-11-11T12:32:43.544Z,84.53
2018-11-11T12:35:12.985Z,89.03
2018-11-11T12:37:41.385Z,83.23
2018-11-11T12:40:11.221Z,74.80
2018-11-11T12:42:40.125Z,80.07
2018-11-11T12:45:09.917Z,88.80
2018-11-11T12:47:38.397Z,75.43
2018-11-11T12:50:08.147Z,75.23
2018-11-11T12:52:36.702Z,63.23
2018-11-11T12:55:05.275Z,73.70
2018-11-11T12:57:34.438Z,59.97
2018-11-11T13:00:02.925Z,47.50
2018-11-11T13:02:31.397Z,52.93
2018-11-11T13:05:00.110Z,47.37
2018-11-11T13:07:29.049Z,44.03
2018-11-11T13:09:57.507Z,46.57
2018-11-11T13:12:26.714Z,47.60
2018-11-11T13:14:55.089Z,43.53
2018-11-11T13:17:23.546Z,39.37
2018-11-11T13:19:52.249Z,37.97
2018-11-11T13:22:21.017Z,38.40
2018-11-11T13:24:49.477Z,45.03
2018-11-11T13:27:18.284Z,45.17
2018-11-11T13:29:46.850Z,44.67
2018-11-11T13:32:15.305Z,43.03
2018-11-11T13:34:44.728Z,33.80
2018-11-11T13:37:13.261Z,41.53
2018-11-11T13:39:41.713Z,37.73
2018-11-11T13:42:10.372Z,35.47
2018-11-11T13:44:38.850Z,33.27
2018-11-11T13:47:07.801Z,36.07
2018-11-11T13:49:36.605Z,34.87
2018-11-11T13:52:05.421Z,37.87
2018-11-11T13:54:33.850Z,34.63
2018-11-11T13:57:02.899Z,38.90
2018-11-11T13:59:31.406Z,38.97
2018-11-11T14:01:59.857Z,42.23
2018-11-11T14:04:29.061Z,43.43
2018-11-11T14:06:57.559Z,43.20
2018-11-11T14:09:26.155Z,45.67
2018-11-11T14:11:54.821Z,46.80
2018-11-11T14:14:23.355Z,48.87
2018-11-11T14:16:51.798Z,49.13
2018-11-11T14:19:21.336Z,44.13
2018-11-11T14:21:49.671Z,44.47
2018-11-11T14:24:18.149Z,45.37
2018-11-11T14:26:47.305Z,41.20
2018-11-11T14:29:15.625Z,44.90
2018-11-11T14:31:44.317Z,44.90
2018-11-11T14:34:13.469Z,37.70
2018-11-11T14:36:41.988Z,35.97
2018-11-11T14:39:12.733Z,42.53
2018-11-11T14:41:42.546Z,40.97
2018-11-11T14:44:11.412Z,39.60
2018-11-11T14:46:40.613Z,39.20
2018-11-11T14:49:10.117Z,39.80
2018-11-11T14:51:38.653Z,37.80
2018-11-11T14:54:07.337Z,37.87
2018-11-11T14:56:36.306Z,38.50
2018-11-11T14:59:05.108Z,41.70
2018-11-11T15:01:33.665Z,45.67
2018-11-11T15:04:02.617Z,37.97
2018-11-11T15:06:31.333Z,41.67
2018-11-11T15:08:59.809Z,37.17
2018-11-11T15:11:28.991Z,36.53
2018-11-11T15:13:57.458Z,35.87
2018-11-11T15:16:25.898Z,32.13
2018-11-11T15:18:55.064Z,35.93
2018-11-11T15:21:23.529Z,34.07
2018-11-11T15:23:52.156Z,32.10
2018-11-11T15:26:21.094Z,33.73
2018-11-11T15:28:49.550Z,33.20
2018-11-11T15:31:18.463Z,31.70
2018-11-11T15:33:47.358Z,34.47
2018-11-11T15:36:15.834Z,34.57
2018-11-11T15:38:44.322Z,32.23
2018-11-11T15:41:13.265Z,29.77
2018-11-11T15:43:41.696Z,29.37
2018-11-11T15:46:10.530Z,31.40
2018-11-11T15:48:39.320Z,27.90
2018-11-11T15:51:08.098Z,28.13
2018-11-11T15:53:36.601Z,29.07
2018-11-11T15:56:05.951Z,26.67
2018-11-11T15:58:34.562Z,35.47
2018-11-11T16:01:03.052Z,31.40
2018-11-11T16:03:31.706Z,34.53
2018-11-11T16:06:00.470Z,30.00
2018-11-11T16:08:28.913Z,31.40
2018-11-11T16:10:58.102Z,31.40
2018-11-11T16:13:26.571Z,31.37
2018-11-11T16:15:55.042Z,30.77
2018-11-11T16:18:23.935Z,31.07
2018-11-11T16:20:52.393Z,33.80
2018-11-11T16:23:20.889Z,34.27
2018-11-11T16:25:50.161Z,36.67
2018-11-11T16:28:18.697Z,33.80
2018-11-11T16:30:47.485Z,39.40
2018-11-11T16:33:16.827Z,31.83
2018-11-11T16:35:45.355Z,36.80
2018-11-11T16:38:13.793Z,36.43
2018-11-11T16:40:42.837Z,38.87
2018-11-11T16:43:11.255Z,35.23
2018-11-11T16:45:39.728Z,38.00
2018-11-11T16:48:08.959Z,33.67
2018-11-11T16:50:38.022Z,31.77
2018-11-11T16:53:08.497Z,33.93
2018-11-11T16:55:37.773Z,40.20
2018-11-11T16:58:06.313Z,38.33
2018-11-11T17:00:36.437Z,35.20
2018-11-11T17:03:05.870Z,35.23
2018-11-11T17:05:35.731Z,37.70
2018-11-11T17:08:04.320Z,37.53
2018-11-11T17:10:34.500Z,37.07
2018-11-11T17:13:04.954Z,43.03
2018-11-11T17:15:33.957Z,42.33
2018-11-11T17:18:02.613Z,42.67
2018-11-11T17:20:31.826Z,43.10
2018-11-11T17:23:02.032Z,44.00
2018-11-11T17:25:31.198Z,41.47
2018-11-11T17:27:59.984Z,42.83
2018-11-11T17:30:35.648Z,46.27
2018-11-11T17:33:04.716Z,43.23
2018-11-11T17:35:33.162Z,45.17
2018-11-11T17:38:02.438Z,46.63
2018-11-11T17:40:31.489Z,44.97
2018-11-11T17:43:01.202Z,50.17
2018-11-11T17:45:30.236Z,46.33
2018-11-11T17:47:58.869Z,43.50
2018-11-11T17:50:28.874Z,48.00
2018-11-11T17:52:58.165Z,45.20
2018-11-11T17:55:27.849Z,51.97
2018-11-11T17:57:56.287Z,47.17
2018-11-11T18:00:26.156Z,47.27
2018-11-11T18:02:55.017Z,43.77
2018-11-11T18:05:24.932Z,42.27
2018-11-11T18:07:53.903Z,44.87
2018-11-11T18:10:23.384Z,41.23
2018-11-11T18:12:51.841Z,52.80
2018-11-11T18:15:22.905Z,48.77
2018-11-11T18:17:51.391Z,48.57
2018-11-11T18:20:21.386Z,39.47
2018-11-11T18:22:51.089Z,43.30
2018-11-11T18:25:19.866Z,49.00
2018-11-11T18:27:48.386Z,44.40
2018-11-11T18:30:20.989Z,44.00
2018-11-11T18:32:49.806Z,40.97
2018-11-11T18:35:19.007Z,45.40
2018-11-11T18:37:48.035Z,45.57
2018-11-11T18:40:18.734Z,37.63
2018-11-11T18:42:47.244Z,43.67
2018-11-11T18:45:20.178Z,43.90
2018-11-11T18:47:49.838Z,46.97
2018-11-11T18:50:20.347Z,49.57
2018-11-11T18:52:48.984Z,50.33
2018-11-11T18:55:17.529Z,41.23
2018-11-11T18:57:46.605Z,49.80
2018-11-11T19:00:23.039Z,49.87
2018-11-11T19:02:52.235Z,51.20
2018-11-11T19:05:21.551Z,49.10
2018-11-11T19:07:50.930Z,39.23
2018-11-11T19:10:23.493Z,44.60
2018-11-11T19:12:53.663Z,49.03
2018-11-11T19:15:22.545Z,47.10
2018-11-11T19:17:51.850Z,49.90
2018-11-11T19:20:21.835Z,42.40
2018-11-11T19:22:50.404Z,42.17
2018-11-11T19:25:20.987Z,38.50
2018-11-11T19:27:50.948Z,38.67
2018-11-11T19:30:20.350Z,36.90
2018-11-11T19:32:49.484Z,36.87
2018-11-11T19:35:18.385Z,34.37
2018-11-11T19:37:48.125Z,36.53
2018-11-11T19:40:17.984Z,34.37
2018-11-11T19:42:46.828Z,34.87
2018-11-11T19:45:16.914Z,30.00
2018-11-11T19:47:45.618Z,33.23
2018-11-11T19:50:16.737Z,29.83
2018-11-11T19:55:27.899Z,32.47
2018-11-11T19:57:57.027Z,28.53
2018-11-11T20:00:26.642Z,34.83
2018-11-11T20:02:56.233Z,31.13
2018-11-11T20:05:25.266Z,31.20
2018-11-11T20:07:55.253Z,30.80
2018-11-11T20:10:25.027Z,27.97
2018-11-11T20:12:53.789Z,33.37
2018-11-11T20:15:23.841Z,28.07
2018-11-11T20:17:52.476Z,31.63
2018-11-11T20:20:22.264Z,30.03
2018-11-11T20:22:50.877Z,34.43
2018-11-11T20:25:20.409Z,32.93
2018-11-11T20:27:50.487Z,36.57
2018-11-11T20:30:21.495Z,28.93
2018-11-11T20:32:50.301Z,29.80
2018-11-11T20:35:20.254Z,31.67
2018-11-11T20:37:48.922Z,33.27
2018-11-11T20:40:18.814Z,33.07
2018-11-11T20:42:47.611Z,32.07
2018-11-11T20:45:17.456Z,32.63
2018-11-11T20:47:46.602Z,23.17
2018-11-11T20:50:17.293Z,30.30
2018-11-11T20:52:46.837Z,32.93
2018-11-11T20:55:15.877Z,27.83
2018-11-11T20:57:44.460Z,26.47
2018-11-11T21:00:18.491Z,27.67
2018-11-11T21:02:47.402Z,26.50
2018-11-11T21:05:17.410Z,20.70
2018-11-11T21:07:46.309Z,24.67
2018-11-11T21:10:19.497Z,24.60
2018-11-11T21:12:48.182Z,23.70
2018-11-11T21:15:17.959Z,23.87
2018-11-11T21:17:47.139Z,20.23
2018-11-11T21:20:17.160Z,23.90
2018-11-11T21:22:45.638Z,22.53
2018-11-11T21:25:14.578Z,20.83
2018-11-11T21:27:44.345Z,20.03
2018-11-11T21:30:15.763Z,20.03
2018-11-11T21:32:44.588Z,18.90
2018-11-11T21:35:13.786Z,15.87
2018-11-11T21:37:42.880Z,19.20
2018-11-11T21:40:15.016Z,16.00
2018-11-11T21:42:44.963Z,18.23
2018-11-11T21:45:15.524Z,15.63
2018-11-11T21:47:44.521Z,15.90
2018-11-11T21:50:18.482Z,15.97
2018-11-11T21:53:50.411Z,16.67
2018-11-11T21:56:19.251Z,17.97
2018-11-11T21:58:47.767Z,15.87
2018-11-11T22:01:16.813Z,15.63
2018-11-11T22:03:45.453Z,17.93
2018-11-11T22:06:14.152Z,18.90
2018-11-11T22:08:43.197Z,18.97
2018-11-11T22:11:11.847Z,19.50
2018-11-11T22:13:40.584Z,19.50
2018-11-11T22:16:09.685Z,20.80
2018-11-11T22:18:38.919Z,23.00
2018-11-11T22:21:07.631Z,22.50
2018-11-11T22:23:37.197Z,24.57
2018-11-11T22:26:06.023Z,25.17
2018-11-11T22:28:34.512Z,23.53
2018-11-11T22:31:03.924Z,22.87
2018-11-11T22:33:32.684Z,21.17
2018-11-11T22:36:01.121Z,21.77
2018-11-11T22:38:30.106Z,20.50
2018-11-11T22:41:01.426Z,21.57
2018-11-11T22:43:29.918Z,19.70
2018-11-11T22:45:58.574Z,21.37
2018-11-11T22:48:27.058Z,23.97
2018-11-11T22:50:55.561Z,21.20
2018-11-11T22:53:24.697Z,24.60
2018-11-11T22:55:53.161Z,16.53
2018-11-11T22:58:21.718Z,23.07
2018-11-11T23:00:55.552Z,21.50
2018-11-11T23:03:24.461Z,21.60
2018-11-11T23:05:52.911Z,22.13
2018-11-11T23:08:21.465Z,19.27
2018-11-11T23:10:50.161Z,21.43
2018-11-11T23:13:18.590Z,20.60
2018-11-11T23:15:47.174Z,20.80
2018-11-11T23:18:15.745Z,19.43
2018-11-11T23:20:44.187Z,18.63
2018-11-11T23:23:12.823Z,16.87
2018-11-11T23:25:41.465Z,16.60
2018-11-11T23:28:09.947Z,19.23
2018-11-11T23:30:39.011Z,18.30
2018-11-11T23:33:07.556Z,21.17
2018-11-11T23:35:36.179Z,21.33
2018-11-11T23:38:05.329Z,23.97
2018-11-11T23:40:33.933Z,27.63
2018-11-11T23:43:02.469Z,26.63
2018-11-11T23:45:31.376Z,30.33
2018-11-11T23:48:00.139Z,35.93
2018-11-11T23:50:28.570Z,34.10
2018-11-11T23:52:57.384Z,38.13
2018-11-11T23:55:26.252Z,37.77
2018-11-11T23:57:54.693Z,34.73
